Time;durP1;ratioP1;P1;durP2;ratioP2;P2;SDS_P1;SDS_P2;PMS_P1;PMS_P2;Temp;Humidity;BMP_temperature;BMP_pressure;BME280_temperature;BME280_humidity;BME280_pressure;Samples;Min_cycle;Max_cycle;Signal;HPM_P1;HPM_P2
2022/09/28 00:01:08;;;;;;;4.23;1.13;;;;;;;9.71;100.00;99193.63;5074866;28;20445;-69
2022/09/28 00:03:35;;;;;;;4.07;1.10;;;;;;;9.70;100.00;99200.16;5074774;28;20464;-70
2022/09/28 00:06:03;;;;;;;4.60;1.43;;;;;;;9.70;100.00;99193.97;5074918;28;20495;-70
2022/09/28 00:08:31;;;;;;;3.23;0.67;;;;;;;9.69;100.00;99193.16;5074831;28;20547;-68
2022/09/28 00:10:58;;;;;;;3.63;1.10;;;;;;;9.66;100.00;99191.13;5074787;28;20495;-70
2022/09/28 00:13:25;;;;;;;3.93;1.30;;;;;;;9.70;100.00;99194.75;5074092;28;21059;-70
2022/09/28 00:15:59;;;;;;;3.73;1.20;;;;;;;9.71;100.00;99190.91;5074714;28;20483;-70
2022/09/28 00:18:26;;;;;;;4.00;1.23;;;;;;;9.77;100.00;99194.22;5074723;28;20417;-70
2022/09/28 00:21:00;;;;;;;4.30;1.47;;;;;;;9.82;100.00;99192.09;5074718;28;20445;-70
2022/09/28 00:23:27;;;;;;;4.87;1.80;;;;;;;9.84;100.00;99200.69;5074495;28;20460;-71
2022/09/28 00:25:54;;;;;;;5.70;1.73;;;;;;;9.82;100.00;99192.09;5074450;28;20441;-69
2022/09/28 00:28:21;;;;;;;4.33;1.47;;;;;;;9.86;100.00;99195.72;5074336;28;20530;-69
2022/09/28 00:30:47;;;;;;;4.37;1.43;;;;;;;9.78;100.00;99185.78;5074419;28;20449;-70
2022/09/28 00:33:14;;;;;;;4.20;1.57;;;;;;;9.82;100.00;99183.97;5074250;28;20465;-70
2022/09/28 00:35:40;;;;;;;4.33;1.40;;;;;;;9.82;100.00;99175.88;5074292;28;20506;-69
2022/09/28 00:38:08;;;;;;;4.20;1.40;;;;;;;9.81;100.00;99179.69;5074084;28;20467;-69
2022/09/28 00:40:35;;;;;;;4.93;1.67;;;;;;;9.81;100.00;99181.63;5074176;28;20488;-69
2022/09/28 00:46:01;;;;;;;4.30;1.70;;;;;;;9.83;100.00;99176.69;5090886;27;20898;-69
2022/09/28 00:48:30;;;;;;;5.57;1.57;;;;;;;9.84;100.00;99179.06;5090465;28;20440;-70
2022/09/28 00:51:02;;;;;;;5.40;2.07;;;;;;;9.88;100.00;99170.28;5090785;28;20445;-70
2022/09/28 00:53:31;;;;;;;5.73;1.60;;;;;;;9.91;100.00;99178.50;5090626;28;20513;-71
2022/09/28 00:56:02;;;;;;;4.67;1.70;;;;;;;9.91;100.00;99175.78;5090737;28;20437;-71
2022/09/28 00:58:31;;;;;;;5.07;1.30;;;;;;;9.92;100.00;99179.31;5090715;28;20432;-71
2022/09/28 01:01:00;;;;;;;4.97;1.90;;;;;;;9.91;100.00;99178.50;5090676;28;20444;-72
2022/09/28 01:03:28;;;;;;;4.03;1.33;;;;;;;9.96;100.00;99178.31;5090547;28;20457;-71
2022/09/28 01:05:58;;;;;;;4.50;1.70;;;;;;;9.99;100.00;99174.16;5090489;28;20495;-71
2022/09/28 01:08:27;;;;;;;5.87;1.70;;;;;;;10.00;100.00;99171.09;5090387;28;20971;-71
2022/09/28 01:10:54;;;;;;;4.93;1.93;;;;;;;9.97;100.00;99171.78;5090498;28;20467;-71
2022/09/28 01:13:23;;;;;;;4.67;1.53;;;;;;;10.02;100.00;99176.19;5090326;28;20496;-72
2022/09/28 01:15:59;;;;;;;5.07;1.87;;;;;;;10.04;100.00;99182.06;5090398;28;20448;-71
2022/09/28 01:18:36;;;;;;;5.57;1.73;;;;;;;10.02;100.00;99170.78;5090373;28;20428;-71
2022/09/28 01:21:09;;;;;;;5.40;1.20;;;;;;;9.98;100.00;99175.28;5090296;28;20416;-71
2022/09/28 01:24:00;;;;;;;5.57;1.70;;;;;;;9.93;100.00;99172.78;5090167;28;20492;-71
2022/09/28 01:26:39;;;;;;;7.60;1.93;;;;;;;9.94;100.00;99163.53;5090208;28;20413;-71
2022/09/28 01:29:15;;;;;;;4.13;1.27;;;;;;;9.93;100.00;99167.38;5090231;28;20440;-71
2022/09/28 01:31:47;;;;;;;5.23;1.73;;;;;;;9.92;100.00;99169.28;5089674;28;20456;-71
2022/09/28 01:34:18;;;;;;;4.77;1.77;;;;;;;9.94;100.00;99167.03;5089985;28;20467;-72
2022/09/28 01:36:49;;;;;;;6.27;1.60;;;;;;;9.94;100.00;99161.63;5089996;28;20429;-71
2022/09/28 01:39:20;;;;;;;5.57;2.13;;;;;;;9.96;100.00;99163.97;5089878;28;20455;-72
2022/09/28 01:41:52;;;;;;;5.77;1.77;;;;;;;9.99;100.00;99150.59;5089624;28;20899;-71
2022/09/28 01:44:21;;;;;;;4.70;1.60;;;;;;;9.99;100.00;99158.72;5089377;28;20579;-71
2022/09/28 01:46:49;;;;;;;4.93;1.80;;;;;;;10.01;100.00;99161.09;5089831;28;20444;-71
2022/09/28 01:49:21;;;;;;;5.37;1.73;;;;;;;10.05;100.00;99156.63;5089445;28;20982;-69
2022/09/28 01:51:53;;;;;;;5.30;1.90;;;;;;;10.05;100.00;99159.31;5089692;28;20474;-75
2022/09/28 01:54:25;;;;;;;6.40;1.77;;;;;;;9.99;100.00;99163.34;5089439;28;20957;-70
2022/09/28 01:56:57;;;;;;;5.17;1.90;;;;;;;9.97;100.00;99158.25;5078435;28;20483;-69
2022/09/28 01:59:28;;;;;;;5.23;1.70;;;;;;;9.92;100.00;99153.06;5076161;28;20444;-71
2022/09/28 02:01:58;;;;;;;5.20;1.80;;;;;;;9.88;100.00;99145.94;5076090;28;20422;-70
2022/09/28 02:04:31;;;;;;;4.30;1.40;;;;;;;9.86;100.00;99144.34;5075788;28;20530;-70
2022/09/28 02:07:03;;;;;;;4.50;1.47;;;;;;;9.89;100.00;99151.00;5075999;28;20428;-70
2022/09/28 02:09:35;;;;;;;4.23;1.33;;;;;;;9.89;100.00;99152.94;5075871;28;20839;-70
2022/09/28 02:12:11;;;;;;;5.60;1.57;;;;;;;9.88;100.00;99154.84;5075892;28;20426;-71
2022/09/28 02:14:40;;;;;;;5.73;1.93;;;;;;;9.85;100.00;99153.59;5075706;28;20491;-70
2022/09/28 02:17:07;;;;;;;6.80;1.90;;;;;;;9.82;100.00;99148.81;5075746;28;20441;-70
2022/09/28 02:19:35;;;;;;;4.20;1.33;;;;;;;9.85;100.00;99144.69;5075655;28;20438;-70
2022/09/28 02:22:09;;;;;;;4.57;1.60;;;;;;;9.87;100.00;99145.13;5075675;28;20490;-70
2022/09/28 02:24:38;;;;;;;4.03;1.47;;;;;;;9.88;100.00;99144.03;5075539;28;20905;-70
2022/09/28 02:27:12;;;;;;;5.00;1.93;;;;;;;9.86;100.00;99146.25;5075598;28;20445;-70
2022/09/28 02:29:38;;;;;;;4.00;1.40;;;;;;;9.79;100.00;99144.09;5075289;28;20421;-71
2022/09/28 02:32:05;;;;;;;4.40;1.80;;;;;;;9.78;100.00;99139.81;5075501;28;20468;-71
2022/09/28 02:34:32;;;;;;;5.50;1.60;;;;;;;9.76;100.00;99138.56;5075349;28;20460;-71
2022/09/28 02:36:58;;;;;;;5.87;1.30;;;;;;;9.81;100.00;99143.75;5075773;28;20438;-72
2022/09/28 02:39:25;;;;;;;4.97;1.90;;;;;;;9.84;100.00;99137.69;5075743;28;20449;-72
2022/09/28 02:41:58;;;;;;;4.40;1.80;;;;;;;9.81;100.00;99135.66;5075434;28;20446;-71
2022/09/28 02:44:57;;;;;;;6.00;2.27;;;;;;;9.80;100.00;99137.56;5074680;28;20870;-70
2022/09/28 02:47:35;;;;;;;7.43;1.60;;;;;;;9.83;100.00;99133.41;5074295;28;20463;-71
2022/09/28 02:50:15;;;;;;;4.47;1.90;;;;;;;9.80;100.00;99136.78;5075090;28;20432;-71
2022/09/28 02:52:59;;;;;;;4.53;1.90;;;;;;;9.81;100.00;99136.44;5075079;28;20432;-71
2022/09/28 02:55:37;;;;;;;6.10;2.03;;;;;;;9.77;100.00;99129.31;5075036;28;20430;-71
2022/09/28 02:58:19;;;;;;;5.00;1.87;;;;;;;9.80;100.00;99124.03;5074707;28;20422;-71
2022/09/28 03:00:57;;;;;;;4.37;1.53;;;;;;;9.83;100.00;99126.09;5074994;28;20440;-71
2022/09/28 03:03:31;;;;;;;4.87;1.80;;;;;;;9.79;100.00;99127.09;5074806;28;20512;-72
2022/09/28 03:06:02;;;;;;;6.60;1.73;;;;;;;9.79;100.00;99127.88;5074757;28;20809;-71
2022/09/28 03:08:33;;;;;;;4.60;1.37;;;;;;;9.76;100.00;99123.13;5073423;28;20499;-71
2022/09/28 03:11:03;;;;;;;6.43;2.00;;;;;;;9.76;100.00;99116.94;5074730;28;20438;-72
2022/09/28 03:13:31;;;;;;;5.77;2.23;;;;;;;9.75;100.00;99124.25;5075978;28;20495;-71
2022/09/28 03:16:11;;;;;;;5.50;2.33;;;;;;;9.74;100.00;99114.56;5074292;28;20942;-71
2022/09/28 03:18:38;;;;;;;5.00;1.83;;;;;;;9.73;100.00;99107.56;5074601;28;20429;-71
2022/09/28 03:21:05;;;;;;;6.13;1.87;;;;;;;9.71;100.00;99107.09;5074467;28;20437;-72
2022/09/28 03:23:32;;;;;;;5.30;1.90;;;;;;;9.71;100.00;99112.50;5074083;28;21036;-72
2022/09/28 03:25:59;;;;;;;7.27;2.70;;;;;;;9.69;100.00;99106.63;5074091;28;21023;-72
2022/09/28 03:28:27;;;;;;;6.17;2.17;;;;;;;9.71;100.00;99109.03;5074456;28;20861;-71
2022/09/28 03:30:53;;;;;;;5.83;2.17;;;;;;;9.64;100.00;99103.34;5074163;28;20440;-71
2022/09/28 03:33:22;;;;;;;5.50;1.93;;;;;;;9.69;100.00;99095.03;5073842;28;20548;-71
2022/09/28 03:35:49;;;;;;;5.17;1.93;;;;;;;9.75;100.00;99097.22;5074236;28;20464;-71
2022/09/28 03:38:17;;;;;;;5.63;2.07;;;;;;;9.80;100.00;99099.72;5073077;28;20444;-71
2022/09/28 03:40:43;;;;;;;9.50;2.50;;;;;;;9.81;100.00;99103.97;5074021;28;20445;-72
2022/09/28 03:43:10;;;;;;;5.67;2.20;;;;;;;9.76;100.00;99106.13;5074028;28;20457;-72
2022/09/28 03:45:36;;;;;;;5.70;2.07;;;;;;;9.67;100.00;99100.78;5073511;28;20915;-71
2022/09/28 03:48:03;;;;;;;7.13;2.50;;;;;;;9.66;100.00;99106.53;5074002;28;20441;-71
2022/09/28 03:50:30;;;;;;;6.40;2.27;;;;;;;9.65;100.00;99092.22;5074023;28;20441;-72
2022/09/28 03:53:02;;;;;;;5.10;2.23;;;;;;;9.67;100.00;99092.66;5073921;28;20464;-72
2022/09/28 03:55:28;;;;;;;4.90;1.73;;;;;;;9.67;100.00;99092.66;5073849;28;20430;-72
2022/09/28 03:57:55;;;;;;;6.10;2.60;;;;;;;9.54;100.00;99091.03;5073838;28;20491;-72
2022/09/28 04:00:22;;;;;;;6.17;2.40;;;;;;;9.47;100.00;99085.34;5073551;28;20938;-72
2022/09/28 04:02:48;;;;;;;6.80;2.30;;;;;;;9.53;100.00;99086.75;5073444;28;20451;-73
2022/09/28 04:05:14;;;;;;;6.33;2.47;;;;;;;9.59;100.00;99080.78;5073668;28;20493;-72
2022/09/28 04:07:42;;;;;;;6.43;2.50;;;;;;;9.65;100.00;99094.09;5073599;28;20449;-72
2022/09/28 04:10:09;;;;;;;5.63;2.37;;;;;;;9.70;100.00;99086.59;5073787;28;20441;-72
2022/09/28 04:12:35;;;;;;;8.00;3.67;;;;;;;9.65;100.00;99089.53;5073758;28;20441;-71
2022/09/28 04:15:02;;;;;;;8.27;3.40;;;;;;;9.57;100.00;99087.69;5073599;28;20442;-71
2022/09/28 04:17:28;;;;;;;7.77;3.33;;;;;;;9.58;100.00;99087.34;5073219;28;20827;-71
2022/09/28 04:19:55;;;;;;;9.10;3.20;;;;;;;9.59;100.00;99082.72;5073304;28;20437;-71
2022/09/28 04:22:22;;;;;;;5.00;2.03;;;;;;;9.56;100.00;99086.06;5073405;28;20461;-71
2022/09/28 04:24:49;;;;;;;6.60;2.60;;;;;;;9.55;100.00;99073.69;5073976;28;20461;-72
2022/09/28 04:30:00;;;;;;;9.23;3.13;;;;;;;9.58;100.00;99070.31;5073297;28;20408;-71
2022/09/28 04:32:26;;;;;;;8.60;3.47;;;;;;;9.49;100.00;99069.63;5073317;28;20445;-72
2022/09/28 04:34:53;;;;;;;7.77;3.40;;;;;;;9.47;100.00;99077.25;5073292;28;20841;-73
2022/09/28 04:37:19;;;;;;;8.00;2.90;;;;;;;9.42;100.00;99074.75;5072964;28;20440;-72
2022/09/28 04:39:45;;;;;;;8.43;3.13;;;;;;;9.36;100.00;99082.28;5072974;28;20437;-72
2022/09/28 04:42:13;;;;;;;8.77;3.30;;;;;;;9.35;100.00;99078.00;5072902;28;20445;-72
2022/09/28 04:44:40;;;;;;;6.50;3.27;;;;;;;9.34;100.00;99071.81;5072580;28;20477;-71
2022/09/28 04:47:06;;;;;;;7.37;2.90;;;;;;;9.34;100.00;99073.69;5072896;28;20467;-71
2022/09/28 04:49:34;;;;;;;6.57;2.40;;;;;;;9.34;100.00;99073.69;5072601;28;21028;-71
2022/09/28 04:52:00;;;;;;;5.83;2.80;;;;;;;9.34;100.00;99069.09;5073126;28;20857;-71
2022/09/28 04:54:27;;;;;;;5.97;2.30;;;;;;;9.39;100.00;99073.50;5073042;28;20469;-71
2022/09/28 04:56:54;;;;;;;6.77;2.57;;;;;;;9.44;100.00;99073.31;5072840;28;20935;-71
2022/09/28 04:59:21;;;;;;;6.77;3.30;;;;;;;9.45;100.00;99074.09;5073149;28;20863;-71
2022/09/28 05:01:48;;;;;;;7.87;3.30;;;;;;;9.42;100.00;99077.44;5073174;28;20440;-71
2022/09/28 05:04:15;;;;;;;7.73;3.40;;;;;;;9.41;100.00;99079.38;5072999;28;20461;-72
2022/09/28 05:06:41;;;;;;;8.90;3.67;;;;;;;9.40;100.00;99077.78;5072913;28;20488;-71
2022/09/28 05:09:08;;;;;;;5.80;2.70;;;;;;;9.29;100.00;99084.69;5072990;28;20441;-71
2022/09/28 05:11:35;;;;;;;6.43;2.83;;;;;;;9.28;100.00;99083.13;5072982;28;21014;-71
2022/09/28 05:14:01;;;;;;;7.50;2.93;;;;;;;9.30;100.00;99084.38;5072904;28;20461;-71
2022/09/28 05:16:32;;;;;;;10.10;3.23;;;;;;;9.36;100.00;99087.69;5072881;28;20444;-72
2022/09/28 05:18:59;;;;;;;6.67;3.53;;;;;;;9.36;100.00;99084.97;5072996;28;20522;-72
2022/09/28 05:21:26;;;;;;;7.17;2.83;;;;;;;9.40;100.00;99085.09;5072602;28;20938;-71
2022/09/28 05:23:54;;;;;;;9.77;3.83;;;;;;;9.48;100.00;99093.16;5072789;28;20560;-71
2022/09/28 05:26:21;;;;;;;11.60;4.30;;;;;;;9.60;100.00;99092.41;5072646;28;20491;-71
2022/09/28 05:28:48;;;;;;;12.43;4.03;;;;;;;9.66;100.00;99090.31;5072531;28;20433;-71
2022/09/28 05:31:15;;;;;;;8.27;3.27;;;;;;;9.60;100.00;99095.09;5074136;28;20494;-72
2022/09/28 05:33:42;;;;;;;7.70;3.03;;;;;;;9.51;100.00;99089.75;5076511;28;20499;-71
2022/09/28 05:36:10;;;;;;;11.10;3.83;;;;;;;9.50;100.00;99084.69;5076392;28;20441;-72
2022/09/28 05:38:37;;;;;;;9.63;3.10;;;;;;;9.48;100.00;99085.03;5073383;28;20477;-72
2022/09/28 05:41:03;;;;;;;7.30;2.97;;;;;;;9.58;100.00;99078.44;5076331;28;20492;-72
2022/09/28 05:43:30;;;;;;;10.87;3.70;;;;;;;9.60;100.00;99087.78;5076164;28;20469;-72
2022/09/28 05:45:59;;;;;;;8.07;3.60;;;;;;;9.60;100.00;99073.47;5076382;28;20481;-72
2022/09/28 05:48:26;;;;;;;5.97;2.30;;;;;;;9.66;100.00;99069.47;5076249;28;20441;-72
2022/09/28 05:50:54;;;;;;;6.43;3.40;;;;;;;9.68;100.00;99069.91;5076175;28;20465;-71
2022/09/28 05:53:21;;;;;;;10.83;3.07;;;;;;;9.71;100.00;99063.06;5075964;28;20993;-71
2022/09/28 05:55:48;;;;;;;8.27;2.83;;;;;;;9.78;100.00;99061.41;5075975;28;20491;-71
2022/09/28 05:58:14;;;;;;;7.13;3.20;;;;;;;9.80;100.00;99059.16;5076089;28;20441;-74
2022/09/28 06:00:41;;;;;;;6.47;2.90;;;;;;;9.84;100.00;99065.47;5076142;28;20452;-73
2022/09/28 06:03:10;;;;;;;7.83;3.77;;;;;;;9.94;100.00;99069.66;5075684;28;20457;-69
2022/09/28 06:05:38;;;;;;;10.10;3.47;;;;;;;10.01;100.00;99069.13;5070466;28;20489;-69
2022/09/28 06:08:09;;;;;;;11.67;3.90;;;;;;;10.04;100.00;99065.72;5064777;28;20442;-71
2022/09/28 06:10:35;;;;;;;8.07;3.30;;;;;;;9.98;100.00;99067.09;5057762;28;20520;-71
2022/09/28 06:13:02;;;;;;;9.17;3.57;;;;;;;9.95;100.00;99070.44;5064035;28;20888;-70
2022/09/28 06:15:30;;;;;;;7.53;3.77;;;;;;;9.94;100.00;99063.47;5055706;28;20496;-70
2022/09/28 06:17:58;;;;;;;7.17;3.50;;;;;;;9.92;100.00;99069.22;5055730;28;20500;-70
2022/09/28 06:20:26;;;;;;;8.23;3.80;;;;;;;9.92;100.00;99061.09;5055423;28;20461;-71
2022/09/28 06:22:53;;;;;;;6.90;3.37;;;;;;;9.98;100.00;99059.75;5055583;28;20442;-71
2022/09/28 06:25:24;;;;;;;5.20;2.57;;;;;;;10.06;100.00;99055.38;5055660;28;20438;-72
2022/09/28 06:27:55;;;;;;;7.10;2.77;;;;;;;10.03;100.00;99056.84;5055523;28;20422;-72
2022/09/28 06:30:23;;;;;;;8.57;3.57;;;;;;;9.97;100.00;99050.06;5055549;28;20496;-72
2022/09/28 06:32:53;;;;;;;8.50;3.30;;;;;;;9.93;100.00;99051.06;5055397;28;20489;-71
2022/09/28 06:35:20;;;;;;;6.93;2.90;;;;;;;9.90;100.00;99047.09;5055435;28;20480;-72
2022/09/28 06:37:47;;;;;;;8.17;3.23;;;;;;;9.83;100.00;99055.00;5063449;28;20476;-71
2022/09/28 06:40:14;;;;;;;6.40;2.70;;;;;;;9.81;100.00;99055.31;5059372;28;20931;-72
2022/09/28 06:42:42;;;;;;;6.33;2.70;;;;;;;9.88;100.00;99059.41;5055120;28;20499;-71
2022/09/28 06:45:09;;;;;;;8.70;4.07;;;;;;;9.83;100.00;99046.88;5054766;28;20556;-71
2022/09/28 06:47:36;;;;;;;6.97;3.60;;;;;;;9.85;100.00;99048.13;5054764;28;20522;-71
2022/09/28 06:50:03;;;;;;;7.13;3.37;;;;;;;9.91;100.00;99051.38;5055076;28;20442;-71
2022/09/28 06:52:29;;;;;;;11.53;5.17;;;;;;;9.98;100.00;99059.75;5054741;28;20446;-71
2022/09/28 06:54:56;;;;;;;6.63;2.33;;;;;;;10.03;100.00;99046.00;5055040;28;20508;-70
2022/09/28 06:57:22;;;;;;;14.27;3.93;;;;;;;10.12;100.00;99048.63;5054936;28;20456;-70
2022/09/28 06:59:50;;;;;;;9.10;4.47;;;;;;;10.19;100.00;99050.78;5054569;28;21004;-70
2022/09/28 07:02:16;;;;;;;8.47;3.70;;;;;;;10.19;100.00;99048.09;5054844;28;20446;-71
2022/09/28 07:04:43;;;;;;;7.90;3.20;;;;;;;10.21;100.00;99054.72;5054466;28;21002;-70
2022/09/28 07:07:09;;;;;;;9.10;3.60;;;;;;;10.23;100.00;99055.19;5054579;28;20478;-70
2022/09/28 07:09:36;;;;;;;11.60;3.97;;;;;;;10.29;100.00;99051.16;5054804;28;20545;-70
2022/09/28 07:12:03;;;;;;;6.90;3.07;;;;;;;10.37;100.00;99062.22;5054443;28;20540;-70
2022/09/28 07:14:30;;;;;;;8.20;3.83;;;;;;;10.45;100.00;99047.81;5054481;28;20558;-70
2022/09/28 07:16:58;;;;;;;13.00;4.73;;;;;;;10.50;100.00;99048.38;5054335;28;20564;-70
2022/09/28 07:19:24;;;;;;;10.40;4.10;;;;;;;10.50;100.00;99042.16;5054554;28;20442;-70
2022/09/28 07:21:51;;;;;;;11.53;4.20;;;;;;;10.51;100.00;99044.53;5057173;28;20445;-72
2022/09/28 07:24:17;;;;;;;11.23;4.23;;;;;;;10.56;100.00;99041.59;5072999;28;20507;-69
2022/09/28 07:26:44;;;;;;;10.10;4.97;;;;;;;10.64;100.00;99037.19;5067640;28;20485;-70
2022/09/28 07:29:11;;;;;;;7.90;3.40;;;;;;;10.65;100.00;99033.34;5057717;28;20911;-70
2022/09/28 07:31:39;;;;;;;10.13;3.97;;;;;;;10.64;100.00;99036.41;5054232;28;20458;-70
2022/09/28 07:34:06;;;;;;;10.20;4.50;;;;;;;10.66;100.00;99037.63;5054249;28;20516;-69
2022/09/28 07:36:33;;;;;;;9.50;4.00;;;;;;;10.70;100.00;99038.53;5054282;28;20512;-70
2022/09/28 07:39:00;;;;;;;11.17;3.83;;;;;;;10.71;100.00;99037.41;5054347;28;20446;-70
2022/09/28 07:41:31;;;;;;;8.47;3.60;;;;;;;10.69;100.00;99036.97;5054151;28;20504;-70
2022/09/28 07:44:04;;;;;;;11.27;4.70;;;;;;;10.75;100.00;99048.34;5053753;28;20483;-69
2022/09/28 07:46:31;;;;;;;8.27;4.00;;;;;;;10.80;100.00;99042.69;5054519;28;20506;-70
2022/09/28 07:48:57;;;;;;;8.70;3.80;;;;;;;10.89;100.00;99042.56;5053952;28;20504;-70
2022/09/28 07:51:25;;;;;;;8.50;4.07;;;;;;;10.91;100.00;99048.44;5053839;28;20477;-70
2022/09/28 07:53:53;;;;;;;11.77;4.00;;;;;;;10.97;100.00;99044.38;5053654;28;20470;-70
2022/09/28 07:56:19;;;;;;;10.47;4.27;;;;;;;11.05;100.00;99043.47;5053746;28;20454;-73
2022/09/28 07:58:47;;;;;;;9.87;4.43;;;;;;;11.10;100.00;99048.63;5053699;28;20472;-72
2022/09/28 08:01:15;;;;;;;12.30;4.53;;;;;;;11.11;100.00;99051.03;5053929;28;20446;-72
2022/09/28 08:03:43;;;;;;;10.27;4.63;;;;;;;11.12;100.00;99049.09;5053702;28;20462;-71
2022/09/28 08:06:11;;;;;;;9.57;5.37;;;;;;;11.17;100.00;99042.66;5053767;28;20486;-71
2022/09/28 08:08:42;;;;;;;9.80;4.03;;;;;;;11.23;100.00;99049.41;5053746;28;20442;-72
2022/09/28 08:11:09;;;;;;;10.40;4.00;;;;;;;11.29;100.00;99056.97;5053539;28;20423;-71
2022/09/28 08:13:39;;;;;;;8.17;3.20;;;;;;;11.42;100.00;99059.63;5053457;28;20458;-73
2022/09/28 08:16:07;;;;;;;12.20;4.10;;;;;;;11.49;100.00;99051.69;5053477;28;20450;-70
2022/09/28 08:18:34;;;;;;;9.00;4.17;;;;;;;11.52;100.00;99053.72;5053581;28;20446;-76
2022/09/28 08:23:47;;;;;;;9.30;4.53;;;;;;;11.65;99.95;99060.69;5052934;28;20475;-69
2022/09/28 08:26:13;;;;;;;8.03;3.47;;;;;;;11.70;99.55;99059.63;5053325;28;20486;-71
2022/09/28 08:28:41;;;;;;;9.07;3.23;;;;;;;11.73;98.07;99059.75;5053276;28;20450;-70
2022/09/28 08:31:08;;;;;;;8.77;3.63;;;;;;;11.83;97.86;99066.63;5053170;28;20478;-71
2022/09/28 08:33:34;;;;;;;7.07;2.90;;;;;;;11.96;98.24;99062.72;5053180;28;20469;-69
2022/09/28 08:36:03;;;;;;;9.00;4.43;;;;;;;12.10;98.72;99065.78;5053290;28;20457;-73
2022/09/28 08:38:30;;;;;;;10.13;4.53;;;;;;;12.21;97.95;99066.03;5052907;28;21021;-74
2022/09/28 08:41:11;;;;;;;9.47;4.20;;;;;;;12.28;96.84;99060.03;5052863;28;20816;-72
2022/09/28 08:44:00;;;;;;;7.20;3.03;;;;;;;12.33;95.08;99070.63;5053068;28;20480;-74
2022/09/28 08:46:33;;;;;;;11.60;4.70;;;;;;;12.38;94.88;99076.56;5053137;28;20470;-72
2022/09/28 08:49:07;;;;;;;12.33;4.40;;;;;;;12.36;95.46;99068.00;5053230;28;20484;-72
2022/09/28 08:51:37;;;;;;;7.70;3.60;;;;;;;12.47;95.32;99070.19;5053292;28;20426;-76
2022/09/28 08:54:09;;;;;;;7.40;3.70;;;;;;;12.42;92.99;99078.59;5053553;28;20469;-72
2022/09/28 08:56:42;;;;;;;10.43;4.27;;;;;;;12.44;93.06;99071.69;5053163;28;20422;-70
2022/09/28 08:59:12;;;;;;;10.70;4.47;;;;;;;12.47;93.38;99081.81;5052809;28;20863;-72
2022/09/28 09:01:44;;;;;;;9.47;3.53;;;;;;;12.49;92.71;99070.63;5052904;28;20928;-72
2022/09/28 09:04:10;;;;;;;10.80;3.77;;;;;;;12.56;92.73;99077.00;5053124;28;20508;-72
2022/09/28 09:06:55;;;;;;;7.30;3.40;;;;;;;12.63;94.11;99079.91;5054933;28;20489;-70
2022/09/28 09:09:31;;;;;;;9.20;3.70;;;;;;;12.79;92.83;99081.81;5057179;28;20480;-71
2022/09/28 09:12:08;;;;;;;8.00;3.70;;;;;;;12.93;91.52;99079.44;5056925;28;20471;-72
2022/09/28 09:14:59;;;;;;;9.10;4.10;;;;;;;13.04;89.50;99076.94;5056872;28;20548;-72
2022/09/28 09:17:37;;;;;;;9.97;3.40;;;;;;;13.33;91.26;99084.63;5057100;28;20425;-73
2022/09/28 09:20:17;;;;;;;8.63;3.90;;;;;;;13.57;87.01;99080.84;5056637;28;20900;-73
2022/09/28 09:22:55;;;;;;;8.83;3.10;;;;;;;13.70;86.68;99078.75;5056833;28;20430;-74
2022/09/28 09:25:28;;;;;;;9.30;3.10;;;;;;;13.92;87.39;99076.44;5056766;28;20435;-73
2022/09/28 09:28:39;;;;;;;5.83;3.03;;;;;;;14.07;86.77;99078.28;5058988;28;20473;-74
2022/09/28 09:31:15;;;;;;;7.03;2.63;;;;;;;14.02;86.00;99084.81;5063652;28;20458;-74
2022/09/28 09:34:12;;;;;;;18.60;3.43;;;;;;;14.05;81.73;99078.66;5061567;28;20465;-73
2022/09/28 09:36:52;;;;;;;6.47;2.80;;;;;;;14.20;82.55;99079.69;5056264;28;20903;-73
2022/09/28 09:39:30;;;;;;;5.63;2.20;;;;;;;14.35;82.31;99078.78;5056639;28;20461;-73
2022/09/28 09:42:10;;;;;;;5.93;2.47;;;;;;;14.47;81.69;99080.53;5067061;28;20452;-74
2022/09/28 09:45:00;;;;;;;5.80;2.00;;;;;;;14.23;77.53;99080.91;5058749;28;20489;-74
2022/09/28 09:47:33;;;;;;;6.50;2.10;;;;;;;14.21;76.48;99084.00;5070793;28;20477;-73
2022/09/28 09:50:05;;;;;;;6.37;2.60;;;;;;;14.21;75.07;99081.28;5074218;28;20923;-73
2022/09/28 09:52:38;;;;;;;6.60;2.20;;;;;;;14.12;74.22;99081.50;5056345;28;20430;-73
2022/09/28 09:55:14;;;;;;;4.83;1.53;;;;;;;14.10;74.45;99080.28;5056322;28;20434;-73
2022/09/28 09:57:48;;;;;;;4.23;1.87;;;;;;;14.02;73.43;99081.31;5056078;28;20423;-73
2022/09/28 10:00:18;;;;;;;5.10;1.70;;;;;;;13.96;73.50;99083.53;5055938;28;20459;-74
2022/09/28 10:02:48;;;;;;;6.00;1.97;;;;;;;13.85;72.11;99077.09;5055984;28;20456;-72
2022/09/28 10:05:20;;;;;;;4.50;1.47;;;;;;;13.82;73.34;99081.34;5056101;28;20438;-73
2022/09/28 10:07:53;;;;;;;5.00;1.10;;;;;;;13.85;73.01;99072.44;5055975;28;20469;-73
2022/09/28 10:10:24;;;;;;;4.33;1.37;;;;;;;13.74;72.14;99076.91;5055917;28;20430;-74
2022/09/28 10:12:51;;;;;;;10.17;1.50;;;;;;;13.77;76.74;99078.13;5056250;28;20415;-74
2022/09/28 10:15:24;;;;;;;4.07;1.43;;;;;;;13.78;74.18;99077.75;5056082;28;20508;-74
2022/09/28 10:17:51;;;;;;;4.47;1.27;;;;;;;13.78;74.07;99077.75;5055629;28;20920;-74
2022/09/28 10:20:18;;;;;;;4.50;1.27;;;;;;;13.79;75.81;99078.53;5055736;28;20442;-73
2022/09/28 10:22:45;;;;;;;4.40;1.20;;;;;;;13.73;72.17;99080.78;5055753;28;20446;-73
2022/09/28 10:25:13;;;;;;;5.43;1.50;;;;;;;13.71;73.65;99077.59;5055928;28;20468;-73
2022/09/28 10:27:44;;;;;;;4.03;1.17;;;;;;;13.69;75.69;99077.19;5055920;28;20490;-72
2022/09/28 10:30:16;;;;;;;4.17;1.20;;;;;;;13.67;76.05;99082.19;5055872;28;20476;-73
2022/09/28 10:32:45;;;;;;;4.13;1.10;;;;;;;13.60;73.70;99084.78;5055411;28;20435;-74
2022/09/28 10:35:21;;;;;;;4.77;1.57;;;;;;;13.51;73.73;99085.00;5055512;28;20839;-72
2022/09/28 10:37:51;;;;;;;5.23;1.10;;;;;;;13.55;76.37;99085.84;5055545;28;20450;-74
2022/09/28 10:40:31;;;;;;;3.67;1.00;;;;;;;13.59;79.73;99078.56;5055347;28;20442;-73
2022/09/28 10:43:02;;;;;;;4.87;1.47;;;;;;;13.66;77.88;99086.06;5055266;28;20503;-73
2022/09/28 10:45:35;;;;;;;3.83;1.17;;;;;;;13.71;75.08;99085.78;5054802;28;20462;-73
2022/09/28 10:48:06;;;;;;;3.60;1.10;;;;;;;13.82;72.54;99073.16;5054781;28;20470;-73
2022/09/28 10:50:33;;;;;;;3.50;1.20;;;;;;;14.03;73.38;99082.88;5055187;28;20541;-73
2022/09/28 10:53:11;;;;;;;4.57;1.03;;;;;;;14.25;74.31;99076.66;5054846;28;21047;-73
2022/09/28 10:55:38;;;;;;;4.00;0.87;;;;;;;14.39;71.33;99078.88;5055126;28;20517;-71
2022/09/28 10:58:26;;;;;;;3.17;0.80;;;;;;;14.44;69.82;99083.22;5054736;28;20924;-74
2022/09/28 11:00:58;;;;;;;4.90;1.47;;;;;;;14.49;70.50;99074.75;5054935;28;20423;-73
2022/09/28 11:03:28;;;;;;;6.83;1.30;;;;;;;14.27;72.85;99077.09;5054683;28;21014;-71
2022/09/28 11:05:57;;;;;;;3.90;1.13;;;;;;;14.20;71.98;99076.97;5054957;28;20427;-73
2022/09/28 11:08:28;;;;;;;3.80;1.10;;;;;;;14.08;71.93;99077.16;5054744;28;20488;-73
2022/09/28 11:11:03;;;;;;;3.50;1.00;;;;;;;13.86;71.80;99075.97;5054989;28;20434;-73
2022/09/28 11:13:30;;;;;;;4.00;1.00;;;;;;;13.78;74.74;99083.19;5054334;28;20524;-73
2022/09/28 11:15:57;;;;;;;3.30;0.90;;;;;;;13.63;74.24;99081.31;5055161;28;20901;-72
2022/09/28 11:18:31;;;;;;;2.97;0.53;;;;;;;13.61;74.38;99083.63;5054837;28;20443;-72
2022/09/28 11:21:13;;;;;;;4.23;0.90;;;;;;;13.85;70.55;99094.22;5054727;28;20474;-73
2022/09/28 11:23:40;;;;;;;3.40;0.90;;;;;;;14.37;70.86;99084.66;5054231;28;20469;-73
2022/09/28 11:26:11;;;;;;;4.47;0.73;;;;;;;15.04;69.50;99091.56;5054388;28;20955;-73
2022/09/28 11:28:40;;;;;;;3.73;1.37;;;;;;;15.78;68.16;99096.47;5053641;28;20820;-73
2022/09/28 11:31:08;;;;;;;4.27;1.20;;;;;;;16.06;61.18;99099.50;5054417;28;20497;-72
2022/09/28 11:33:38;;;;;;;3.63;1.00;;;;;;;15.56;61.90;99089.94;5057068;28;20461;-73
2022/09/28 11:36:19;;;;;;;3.30;0.70;;;;;;;14.96;66.11;99090.69;5059272;28;20500;-73
2022/09/28 11:38:58;;;;;;;3.37;1.03;;;;;;;14.41;69.63;99092.09;5074052;28;20433;-73
2022/09/28 11:41:40;;;;;;;3.80;1.10;;;;;;;14.02;72.37;99097.63;5074336;28;20425;-73
2022/09/28 11:44:27;;;;;;;3.20;1.00;;;;;;;13.68;74.34;99102.84;5073920;28;20594;-72
2022/09/28 11:47:09;;;;;;;4.50;1.60;;;;;;;13.40;76.32;99094.06;5074083;28;20421;-72
2022/09/28 11:49:41;;;;;;;4.20;1.03;;;;;;;13.41;74.74;99095.63;5074189;28;20425;-73
2022/09/28 11:52:16;;;;;;;3.40;1.00;;;;;;;13.35;76.24;99097.84;5073748;28;20421;-72
2022/09/28 11:54:51;;;;;;;3.30;0.80;;;;;;;13.45;76.37;99100.00;5073954;28;20460;-73